Viterbo, Italy

08:53 AM CEST del 28 Agosto 2016 (GMT +0200)
viterbo | | Change Station

Alt. 1170 ft 42.42 °N, 12.11 °E | Updated 10 minutes ago

Clear
Sereno
75.6 °F
Sembra 78 °F
N
0.0
Vento Variabile Vento da Est

Oggi
Massima -- | Minima -- °F
--% Possibilità di precip.
Ieri
Massima -- | Minima -- °F
Precip. -- in
Pressione 30.12 in
Visibilità -9999.0 miglia
Nuvole
Indice di calore 78 °F
Punto di rugiada 57 °F
Umidità 52%
Piovosità 0.00 in
Spessore del manto nevoso Non disponibile.
6:32 AM 7:52 PM
Luna calante, 18% visible
METAR LIRV 280555Z 03004KT CAVOK 18/15 Q1020 RMK SKC MON E SE LIB NC VIS MIN 9999 BLU
Pressione 30.12 in
Visibilità -9999.0 miglia
Nuvole
Indice di calore 78 °F
Punto di rugiada 57 °F
Umidità 52%
Piovosità 0.00 in
Spessore del manto nevoso Non disponibile.
6:32 AM 7:52 PM
Luna calante, 18% visible
METAR LIRV 280555Z 03004KT CAVOK 18/15 Q1020 RMK SKC MON E SE LIB NC VIS MIN 9999 BLU

10-Day Weather Forecast

×

Almanac

Astronomia

Aug. 28, 2016 Alba Tramonto
Ora attuale
Crepuscolo civile
Crepuscolo nautico
Crepuscolo astronomico
Luna
Estensione della luce visibile
Lunghezza del giorno
Tomorrow will be .
, % of the Moon is Illuminated

Gli estremi di oggi

Massime Regione Minime Regione

Community

WunderPhotos

Upload Photos

1,935,533 foto caricate!

WunderBlog® & News

Nearby

Qualità dell'aria

  Qualità dell'aria Indice AQ Inquinante
Not available.

Profondità neve

Stazione Profondità Altitudine

Attività sismica

Città  Distanza Mag. Data & Ora
Minimo Magnitudo Mostrato è 2.5.

Temperature delle acque costiere

Località Temperatura

Stations

Stazioni meteo nelle vicinanze

Ubicazione della stazione Temp. Raffreddamento del vento Punto di rugiada Umidità Vento Precip. Alt. Aggiornato Tipo